createdAt,value
2017-05-12T01:19:09.235Z,7.88
2017-05-12T01:21:38.191Z,8.52
2017-05-12T01:24:07.124Z,10.23
2017-05-12T01:26:36.059Z,8.78
2017-05-12T01:29:05.737Z,9.35
2017-05-12T01:31:34.646Z,9.17
2017-05-12T01:34:04.312Z,8.32
2017-05-12T01:36:33.269Z,8.78
2017-05-12T01:39:02.182Z,9.68
2017-05-12T01:41:31.118Z,8.87
2017-05-12T01:44:00.077Z,9.27
2017-05-12T01:46:29.014Z,10.25
2017-05-12T01:48:57.927Z,9.60
2017-05-12T01:51:26.874Z,9.28
2017-05-12T01:53:55.810Z,10.32
2017-05-12T01:56:25.480Z,9.87
2017-05-12T01:58:54.423Z,10.13
2017-05-12T02:01:23.338Z,10.20
2017-05-12T02:03:52.269Z,10.00
2017-05-12T02:06:21.226Z,12.43
2017-05-12T02:08:50.163Z,10.38
2017-05-12T02:11:19.083Z,9.82
2017-05-12T02:13:48.054Z,11.18
2017-05-12T02:16:17.729Z,11.17
2017-05-12T02:18:46.643Z,10.65
2017-05-12T02:21:15.596Z,11.15
2017-05-12T02:23:44.543Z,12.45
2017-05-12T02:26:14.203Z,12.55
2017-05-12T02:28:43.151Z,13.00
2017-05-12T02:31:12.839Z,13.35
2017-05-12T02:33:41.757Z,12.23
2017-05-12T02:36:11.439Z,11.82
2017-05-12T02:38:40.398Z,13.13
2017-05-12T02:41:09.338Z,13.75
2017-05-12T02:43:39.021Z,13.80
2017-05-12T02:46:07.952Z,13.98
2017-05-12T02:48:37.626Z,13.58
2017-05-12T02:51:06.580Z,13.27
2017-05-12T02:53:35.512Z,14.40
2017-05-12T02:56:04.426Z,15.00
2017-05-12T02:58:33.370Z,14.70
2017-05-12T03:01:02.336Z,15.88
2017-05-12T03:03:31.259Z,19.13
2017-05-12T03:06:00.208Z,15.45
2017-05-12T03:08:29.863Z,19.42
2017-05-12T03:10:58.797Z,15.10
2017-05-12T03:13:27.742Z,17.02
2017-05-12T03:15:56.678Z,16.28
2017-05-12T03:18:25.614Z,16.80
2017-05-12T03:20:54.558Z,17.48
2017-05-12T03:23:23.470Z,17.52
2017-05-12T03:25:53.144Z,18.15
2017-05-12T03:28:22.086Z,16.53
2017-05-12T03:30:51.026Z,16.87
2017-05-12T03:33:19.939Z,18.03
2017-05-12T03:35:48.902Z,17.97
2017-05-12T03:38:17.816Z,16.88
2017-05-12T03:40:46.754Z,17.63
2017-05-12T03:43:15.717Z,18.28
2017-05-12T03:45:44.649Z,18.82
2017-05-12T03:48:13.589Z,19.73
2017-05-12T03:50:42.988Z,17.17
2017-05-12T03:53:11.937Z,16.77
2017-05-12T03:55:40.876Z,22.85
2017-05-12T03:58:09.828Z,20.45
2017-05-12T04:00:38.750Z,19.28
2017-05-12T04:03:07.695Z,19.67
2017-05-12T04:05:36.655Z,20.20
2017-05-12T04:08:05.592Z,19.43
2017-05-12T04:10:34.529Z,19.67
2017-05-12T04:13:03.496Z,17.43
2017-05-12T04:15:32.428Z,22.13
2017-05-12T04:18:01.372Z,19.82
2017-05-12T04:20:30.331Z,18.60
2017-05-12T04:23:00.013Z,19.98
2017-05-12T04:25:29.001Z,19.95
2017-05-12T04:27:57.972Z,18.17
2017-05-12T04:30:26.911Z,19.72
2017-05-12T04:32:56.574Z,19.10
2017-05-12T04:35:25.547Z,19.77
2017-05-12T04:37:54.474Z,19.18
2017-05-12T04:40:23.394Z,20.63
2017-05-12T04:42:53.083Z,19.12
2017-05-12T04:45:22.002Z,20.65
2017-05-12T04:47:51.708Z,20.35
2017-05-12T04:50:21.420Z,19.30
2017-05-12T04:52:51.082Z,20.40
2017-05-12T04:55:20.001Z,22.82
2017-05-12T04:57:48.968Z,21.10
2017-05-12T05:00:17.901Z,21.27
2017-05-12T05:02:46.845Z,20.87
2017-05-12T05:05:15.781Z,21.18
2017-05-12T05:07:44.702Z,20.35
2017-05-12T05:10:14.389Z,21.93
2017-05-12T05:12:43.307Z,21.60
2017-05-12T05:15:12.992Z,21.05
2017-05-12T05:17:42.704Z,23.90
2017-05-12T05:20:11.622Z,23.57
2017-05-12T05:22:41.319Z,21.52
2017-05-12T05:25:11.001Z,21.12
2017-05-12T05:27:39.944Z,22.30
2017-05-12T05:30:08.905Z,23.87
2017-05-12T05:32:37.827Z,24.10
2017-05-12T05:35:06.777Z,23.80
2017-05-12T05:37:35.698Z,23.73
2017-05-12T05:40:05.358Z,22.75
2017-05-12T05:42:34.308Z,21.73
2017-05-12T05:45:03.989Z,23.27
2017-05-12T05:47:33.197Z,24.78
2017-05-12T05:50:02.168Z,23.15
2017-05-12T05:52:31.106Z,23.03
2017-05-12T05:55:00.064Z,23.15
2017-05-12T05:57:28.999Z,24.38
2017-05-12T05:59:57.951Z,24.30
2017-05-12T06:02:26.892Z,23.80
2017-05-12T06:04:55.814Z,24.63
2017-05-12T06:07:24.750Z,27.20
2017-05-12T06:09:54.412Z,24.00
2017-05-12T06:12:23.370Z,23.70
2017-05-12T06:14:52.288Z,24.57
2017-05-12T06:17:21.213Z,27.72
2017-05-12T06:19:50.168Z,25.53
2017-05-12T06:22:19.094Z,25.72
2017-05-12T06:24:48.071Z,24.07
2017-05-12T06:27:17.136Z,27.12
2017-05-12T06:29:46.094Z,24.30
2017-05-12T06:32:15.060Z,26.07
2017-05-12T06:34:43.982Z,24.35
2017-05-12T06:37:13.768Z,27.55
2017-05-12T06:39:42.696Z,23.80
2017-05-12T08:18:49.012Z,31.38
2017-05-12T08:21:17.950Z,30.60
2017-05-12T08:23:46.886Z,30.67
2017-05-12T09:20:47.720Z,28.92
2017-05-12T09:23:16.645Z,27.72
2017-05-12T09:25:45.579Z,27.43
2017-05-12T09:28:14.522Z,28.88
2017-05-12T09:30:43.499Z,28.57
2017-05-12T09:33:13.162Z,30.22
2017-05-12T09:35:42.109Z,29.02
2017-05-12T09:38:11.790Z,30.98
2017-05-12T09:40:40.710Z,29.22
2017-05-12T09:43:10.417Z,28.37
2017-05-12T09:45:40.093Z,29.57
2017-05-12T09:48:09.038Z,29.53
2017-05-12T09:50:37.971Z,29.80
2017-05-12T09:58:03.850Z,27.25
2017-05-12T10:00:32.770Z,28.40
2017-05-12T10:03:01.713Z,26.20
2017-05-12T10:05:30.687Z,26.65
2017-05-12T10:10:28.123Z,23.70
2017-05-12T10:32:45.672Z,22.57
2017-05-12T10:47:37.021Z,21.26
2017-05-12T10:52:34.738Z,21.72
2017-05-12T10:55:03.682Z,21.56
2017-05-12T10:57:32.647Z,21.96
2017-05-12T11:00:02.301Z,22.18
2017-05-12T11:17:24.278Z,24.90
2017-05-12T11:19:53.217Z,27.97
2017-05-12T11:22:22.166Z,25.83
2017-05-12T11:44:39.732Z,26.77
2017-05-12T11:47:08.702Z,24.93
2017-05-12T11:49:37.621Z,26.18
2017-05-12T11:52:07.286Z,25.12
2017-05-12T11:54:36.249Z,25.45
2017-05-12T11:57:05.171Z,24.53
2017-05-12T11:59:34.129Z,24.23
2017-05-12T12:16:54.571Z,24.30
2017-05-12T14:25:44.709Z,20.32
2017-05-12T14:28:13.680Z,18.82
2017-05-12T14:30:43.361Z,19.15
2017-05-12T17:31:34.703Z,21.10
2017-05-12T17:41:29.854Z,21.90
2017-05-12T17:43:58.779Z,18.87
2017-05-12T18:03:47.358Z,20.45
2017-05-12T18:26:06.330Z,20.00
2017-05-12T18:31:03.749Z,24.40
2017-05-12T19:33:01.226Z,30.90
2017-05-12T19:35:30.156Z,30.47
2017-05-12T19:37:59.083Z,31.47
2017-05-12T19:40:28.762Z,31.70
2017-05-12T19:42:57.677Z,32.17
2017-05-12T19:45:27.393Z,32.80
2017-05-12T19:47:56.756Z,34.32
2017-05-12T19:50:25.692Z,33.02
2017-05-12T19:52:55.389Z,34.00
2017-05-12T19:55:24.310Z,31.83
2017-05-12T19:57:53.259Z,35.08
2017-05-12T20:00:22.204Z,32.73
2017-05-12T20:02:51.123Z,34.50
2017-05-12T20:05:20.077Z,34.60
2017-05-12T20:07:49.010Z,32.38
2017-05-12T20:10:17.993Z,33.67
2017-05-12T20:12:46.930Z,34.07
2017-05-12T20:15:15.850Z,30.82
2017-05-12T20:17:44.809Z,31.20
2017-05-12T20:20:13.738Z,32.52
2017-05-12T20:22:42.713Z,33.90
2017-05-12T20:25:12.373Z,34.23
2017-05-12T20:27:41.294Z,35.95
2017-05-12T20:30:10.227Z,34.73
2017-05-12T20:32:39.166Z,33.70
2017-05-12T20:35:08.187Z,34.55
2017-05-12T20:57:26.260Z,31.60
2017-05-12T20:59:55.215Z,31.80
2017-05-12T21:04:52.616Z,33.20
2017-05-12T21:07:21.568Z,30.90
2017-05-12T21:14:47.466Z,32.60
2017-05-12T21:19:44.875Z,31.15
2017-05-12T21:22:13.817Z,29.42
2017-05-12T21:24:43.047Z,35.23
2017-05-12T21:27:12.729Z,34.15
2017-05-12T21:29:41.668Z,32.18
2017-05-12T21:32:10.607Z,33.67
2017-05-12T21:34:39.545Z,32.33
2017-05-12T21:37:08.501Z,33.64
2017-05-12T21:39:37.422Z,32.27
2017-05-12T21:42:07.097Z,35.15
2017-05-12T21:44:36.053Z,34.20
2017-05-12T21:47:04.992Z,34.28
2017-05-12T21:49:33.946Z,35.10
2017-05-12T21:52:02.867Z,36.18
2017-05-12T21:54:31.809Z,38.90
2017-05-12T21:57:00.773Z,36.62
2017-05-12T21:59:29.694Z,37.37
2017-05-12T22:01:58.634Z,36.07
2017-05-12T22:04:27.549Z,37.33
2017-05-12T22:06:56.469Z,36.35
2017-05-12T22:09:25.441Z,35.87
2017-05-12T22:11:54.381Z,34.50
2017-05-12T22:14:23.333Z,32.98
2017-05-12T22:16:53.009Z,38.53
2017-05-12T22:19:21.955Z,34.62
2017-05-12T22:21:50.887Z,33.07
2017-05-12T22:24:19.829Z,30.42
2017-05-12T22:26:48.831Z,30.97
2017-05-12T22:29:17.754Z,33.35
2017-05-12T22:31:46.697Z,33.88
2017-05-12T22:34:16.416Z,31.30
2017-05-12T22:36:46.086Z,30.48
2017-05-12T22:39:15.078Z,31.52
2017-05-12T22:41:44.022Z,31.88
2017-05-12T22:44:12.966Z,30.73
2017-05-12T22:46:41.905Z,31.83
2017-05-12T22:49:10.871Z,29.30
2017-05-12T22:51:39.790Z,28.67
2017-05-12T22:54:08.733Z,30.10
2017-05-12T22:56:37.678Z,30.98
2017-05-12T22:59:06.619Z,29.18
2017-05-12T23:01:35.560Z,27.75
2017-05-12T23:04:04.517Z,29.33
2017-05-12T23:06:33.434Z,30.30
2017-05-12T23:09:03.104Z,30.20
2017-05-12T23:11:32.054Z,27.23
2017-05-12T23:14:00.993Z,27.04
2017-05-12T23:16:29.909Z,28.98
2017-05-12T23:18:58.883Z,28.15
2017-05-12T23:21:27.798Z,27.63
2017-05-12T23:23:57.457Z,26.08
2017-05-12T23:26:26.424Z,27.27
2017-05-12T23:28:55.347Z,26.48
2017-05-12T23:31:24.271Z,24.20
2017-05-12T23:33:53.213Z,24.03
2017-05-12T23:36:22.138Z,24.15
2017-05-12T23:38:51.054Z,24.68
2017-05-12T23:41:20.032Z,24.72
2017-05-12T23:43:48.973Z,24.58
2017-05-12T23:46:17.910Z,22.80
2017-05-12T23:48:46.863Z,24.33
2017-05-12T23:51:15.800Z,21.77
2017-05-12T23:53:44.792Z,23.45
2017-05-12T23:56:13.777Z,24.95
2017-05-12T23:58:42.709Z,20.77
